Time;durP1;ratioP1;P1;durP2;ratioP2;P2;SDS_P1;SDS_P2;PMS_P1;PMS_P2;Temp;Humidity;BMP_temperature;BMP_pressure;BME280_temperature;BME280_humidity;BME280_pressure;Samples;Min_cycle;Max_cycle;Signal;HPM_P1;HPM_P2
2021/04/02 00:00:18;;;;;;;5.25;2.42;;;4.80;99.90;;;;;;5030941;28;20112;-80
2021/04/02 00:02:45;;;;;;;7.03;2.00;;;4.80;99.90;;;;;;5022965;28;20078;-81
2021/04/02 00:05:16;;;;;;;11.73;2.72;;;4.80;99.90;;;;;;5025588;28;20497;-81
2021/04/02 00:07:43;;;;;;;14.02;3.33;;;4.80;99.90;;;;;;5029536;28;20080;-81
2021/04/02 00:10:14;;;;;;;10.82;2.72;;;4.80;99.90;;;;;;5025814;28;20143;-81
2021/04/02 00:12:45;;;;;;;5.68;2.22;;;4.80;99.90;;;;;;5029015;28;20133;-81
2021/04/02 00:15:19;;;;;;;8.20;2.35;;;4.80;99.90;;;;;;5032070;28;20075;-81
2021/04/02 00:17:51;;;;;;;9.32;2.20;;;4.80;99.90;;;;;;5021953;28;20057;-82
2021/04/02 00:20:18;;;;;;;9.18;2.60;;;4.80;99.90;;;;;;5024273;28;20057;-81
2021/04/02 00:22:45;;;;;;;7.78;2.35;;;4.80;99.90;;;;;;5026070;28;20908;-81
2021/04/02 00:25:13;;;;;;;10.55;2.20;;;4.80;99.90;;;;;;5025575;28;20085;-81
2021/04/02 00:27:40;;;;;;;7.15;2.03;;;4.80;99.90;;;;;;5023771;28;20072;-81
2021/04/02 00:30:20;;;;;;;5.63;2.30;;;4.80;99.90;;;;;;5019849;28;20041;-81
2021/04/02 00:32:46;;;;;;;6.38;2.28;;;4.80;99.90;;;;;;5020498;28;20046;-81
2021/04/02 00:35:13;;;;;;;8.68;3.05;;;4.70;99.90;;;;;;5023845;28;20054;-81
2021/04/02 00:37:41;;;;;;;11.98;2.53;;;4.80;99.90;;;;;;5018891;28;20141;-81
2021/04/02 00:40:17;;;;;;;7.13;1.80;;;4.70;99.90;;;;;;5019140;28;20556;-81
2021/04/02 00:42:45;;;;;;;9.93;2.40;;;4.70;99.90;;;;;;5022292;28;20072;-81
2021/04/02 00:45:12;;;;;;;7.53;2.35;;;4.70;99.90;;;;;;5023457;28;20062;-81
2021/04/02 00:47:39;;;;;;;7.63;2.17;;;4.70;99.90;;;;;;5021948;28;20420;-81
2021/04/02 00:50:10;;;;;;;4.63;2.13;;;4.70;99.90;;;;;;5023308;28;20055;-81
2021/04/02 00:52:36;;;;;;;5.88;2.20;;;4.70;99.90;;;;;;5013550;28;20132;-81
2021/04/02 00:55:03;;;;;;;10.32;2.40;;;4.70;99.90;;;;;;5015191;28;20084;-80
2021/04/02 00:57:32;;;;;;;4.80;1.63;;;4.70;99.90;;;;;;5021262;28;20139;-81
2021/04/02 00:59:58;;;;;;;7.63;2.10;;;4.70;99.90;;;;;;5003162;28;20069;-81
2021/04/02 01:02:26;;;;;;;9.52;2.10;;;4.70;99.90;;;;;;5023836;28;20049;-80
2021/04/02 01:04:52;;;;;;;13.45;3.97;;;4.70;99.90;;;;;;5017837;28;20050;-81
2021/04/02 01:07:19;;;;;;;7.93;2.85;;;4.70;99.90;;;;;;5019568;28;20078;-81
2021/04/02 01:09:45;;;;;;;9.63;2.80;;;4.60;99.90;;;;;;5018223;28;20040;-82
2021/04/02 01:12:12;;;;;;;9.52;2.78;;;4.60;99.90;;;;;;5022236;28;20120;-81
2021/04/02 01:14:38;;;;;;;8.27;3.15;;;4.60;99.90;;;;;;5021806;28;20052;-82
2021/04/02 01:17:06;;;;;;;8.27;2.03;;;4.60;99.90;;;;;;5021849;28;20056;-81
2021/04/02 01:19:44;;;;;;;7.57;2.88;;;4.60;99.90;;;;;;5029157;28;20053;-81
2021/04/02 01:22:23;;;;;;;6.50;2.30;;;4.60;99.90;;;;;;5017412;28;20065;-81
2021/04/02 01:25:18;;;;;;;17.33;3.40;;;4.60;99.90;;;;;;5019767;28;20042;-81
2021/04/02 01:28:20;;;;;;;11.48;2.45;;;4.60;99.90;;;;;;5019627;28;20450;-82
2021/04/02 01:30:47;;;;;;;13.70;3.35;;;4.60;99.90;;;;;;5021254;28;20409;-82
2021/04/02 01:33:15;;;;;;;6.32;2.72;;;4.60;99.90;;;;;;5022020;28;20060;-81
2021/04/02 01:35:43;;;;;;;13.02;3.22;;;4.60;99.90;;;;;;5009392;28;20055;-80
2021/04/02 01:38:22;;;;;;;13.80;3.72;;;4.60;99.90;;;;;;5010912;28;20050;-81
2021/04/02 01:40:52;;;;;;;13.63;3.05;;;4.60;99.90;;;;;;5018293;28;20045;-82
2021/04/02 01:43:25;;;;;;;7.00;2.45;;;4.50;99.90;;;;;;5016685;28;20073;-81
2021/04/02 01:45:52;;;;;;;9.38;2.78;;;4.50;99.90;;;;;;5024302;28;20055;-81
2021/04/02 01:48:21;;;;;;;6.25;2.83;;;4.60;99.90;;;;;;5014143;28;20073;-81
2021/04/02 01:50:50;;;;;;;4.00;2.13;;;4.60;99.90;;;;;;5018561;28;20077;-81
2021/04/02 01:53:19;;;;;;;11.50;3.08;;;4.50;99.90;;;;;;5015029;28;21116;-81
2021/04/02 01:55:49;;;;;;;7.85;3.13;;;4.50;99.90;;;;;;5017040;28;20488;-81
2021/04/02 01:58:15;;;;;;;13.07;3.40;;;4.50;99.90;;;;;;5019486;28;20072;-81
2021/04/02 02:00:47;;;;;;;10.45;2.65;;;4.50;99.90;;;;;;5012865;28;20457;-81
2021/04/02 02:03:14;;;;;;;10.57;2.80;;;4.50;99.90;;;;;;5017997;28;20138;-82
2021/04/02 02:05:41;;;;;;;9.70;3.30;;;4.50;99.90;;;;;;5019442;28;20493;-81
2021/04/02 02:08:08;;;;;;;8.52;3.30;;;4.50;99.90;;;;;;5020046;28;20081;-81
2021/04/02 02:10:35;;;;;;;13.57;3.75;;;4.50;99.90;;;;;;5018093;28;20404;-82
2021/04/02 02:13:03;;;;;;;13.75;3.40;;;4.50;99.90;;;;;;5017711;28;20054;-82
2021/04/02 02:15:31;;;;;;;9.20;2.95;;;4.50;99.90;;;;;;5017995;28;20056;-82
2021/04/02 02:18:01;;;;;;;9.10;3.42;;;4.50;99.90;;;;;;5018215;28;20060;-82
2021/04/02 02:20:30;;;;;;;13.00;2.63;;;4.50;99.90;;;;;;5013956;28;20059;-82
2021/04/02 02:22:58;;;;;;;11.85;2.88;;;4.50;99.90;;;;;;5020058;28;20060;-81
2021/04/02 02:25:25;;;;;;;5.85;2.85;;;4.50;99.90;;;;;;5016649;28;20037;-82
2021/04/02 02:27:53;;;;;;;10.13;3.03;;;4.50;99.90;;;;;;5014527;28;20049;-82
2021/04/02 02:30:28;;;;;;;11.98;3.50;;;4.50;99.90;;;;;;5014859;28;20133;-81
2021/04/02 02:32:56;;;;;;;11.27;3.67;;;4.50;99.90;;;;;;5016895;28;20057;-82
2021/04/02 02:35:23;;;;;;;13.60;4.63;;;4.50;99.90;;;;;;5015485;28;20493;-81
2021/04/02 02:37:51;;;;;;;11.80;3.65;;;4.40;99.90;;;;;;5018425;28;20451;-82
2021/04/02 02:40:21;;;;;;;15.82;3.58;;;4.40;99.90;;;;;;5016468;28;20471;-82
2021/04/02 02:42:49;;;;;;;12.43;3.63;;;4.40;99.90;;;;;;5018038;28;20099;-82
2021/04/02 02:45:16;;;;;;;10.32;3.15;;;4.40;99.90;;;;;;5017238;28;20050;-81
2021/04/02 02:47:42;;;;;;;13.75;3.05;;;4.40;99.90;;;;;;5016306;28;20033;-82
2021/04/02 02:50:15;;;;;;;22.45;4.20;;;4.40;99.90;;;;;;5015819;28;20096;-82
2021/04/02 02:52:42;;;;;;;12.45;3.53;;;4.30;99.90;;;;;;5016686;28;20050;-82
2021/04/02 02:55:11;;;;;;;11.00;3.85;;;4.30;99.90;;;;;;5017047;28;20069;-80
2021/04/02 02:57:38;;;;;;;4.22;2.03;;;4.30;99.90;;;;;;5018511;28;20462;-81
2021/04/02 03:00:10;;;;;;;16.92;3.50;;;4.20;99.90;;;;;;5016857;28;20060;-81
2021/04/02 03:02:37;;;;;;;14.80;3.38;;;4.30;99.90;;;;;;5019729;28;20077;-81
2021/04/02 03:05:05;;;;;;;8.20;3.20;;;4.30;99.90;;;;;;5017751;28;20067;-82
2021/04/02 03:07:35;;;;;;;16.92;3.20;;;4.30;99.90;;;;;;5015628;28;20061;-80
2021/04/02 03:10:07;;;;;;;10.98;2.60;;;4.20;99.90;;;;;;5017811;28;20445;-81
2021/04/02 03:12:35;;;;;;;8.05;2.92;;;4.20;99.90;;;;;;5019404;28;20077;-81
2021/04/02 03:15:03;;;;;;;11.52;2.88;;;4.20;99.90;;;;;;5019702;28;20132;-81
2021/04/02 03:17:31;;;;;;;11.80;3.47;;;4.10;99.90;;;;;;5025563;28;20064;-81
2021/04/02 03:19:59;;;;;;;13.40;3.83;;;4.10;99.90;;;;;;5018865;28;20515;-81
2021/04/02 03:22:29;;;;;;;8.75;2.83;;;4.10;99.90;;;;;;5015038;28;20137;-80
2021/04/02 03:24:59;;;;;;;8.57;2.92;;;4.10;99.90;;;;;;5023620;28;20480;-81
2021/04/02 03:27:28;;;;;;;16.45;3.90;;;4.10;99.90;;;;;;5021135;28;20056;-81
2021/04/02 03:29:54;;;;;;;14.10;2.85;;;4.00;99.90;;;;;;5015369;28;20075;-81
2021/04/02 03:32:25;;;;;;;7.30;2.70;;;4.00;99.90;;;;;;5018175;28;20050;-81
2021/04/02 03:34:54;;;;;;;16.65;3.22;;;4.00;99.90;;;;;;5018439;28;20045;-81
2021/04/02 03:37:22;;;;;;;6.18;2.67;;;4.00;99.90;;;;;;5017912;28;20076;-81
2021/04/02 03:39:49;;;;;;;12.85;2.97;;;4.00;99.90;;;;;;5020341;28;20064;-81
2021/04/02 03:42:17;;;;;;;9.57;2.97;;;4.00;99.90;;;;;;5036357;28;20145;-81
2021/04/02 03:44:46;;;;;;;13.93;3.42;;;3.90;99.90;;;;;;5014978;28;20145;-81
2021/04/02 03:47:21;;;;;;;9.10;2.47;;;3.90;99.90;;;;;;5017485;28;20050;-81
2021/04/02 03:49:48;;;;;;;14.80;3.88;;;3.90;99.90;;;;;;5016689;28;20046;-81
2021/04/02 03:52:20;;;;;;;18.00;3.65;;;3.90;99.90;;;;;;5018179;28;20101;-81
2021/04/02 03:54:50;;;;;;;11.70;3.33;;;3.90;99.90;;;;;;5020835;28;20056;-81
2021/04/02 03:57:18;;;;;;;8.60;2.40;;;3.80;99.90;;;;;;5017199;28;20473;-81
2021/04/02 03:59:48;;;;;;;12.68;2.75;;;3.80;99.90;;;;;;5020699;28;20065;-81
2021/04/02 04:02:16;;;;;;;14.68;2.90;;;3.80;99.90;;;;;;5027862;28;20080;-81
2021/04/02 04:04:44;;;;;;;12.65;3.00;;;3.80;99.90;;;;;;5035720;28;20073;-81
2021/04/02 04:07:11;;;;;;;14.65;2.78;;;3.80;99.90;;;;;;5024446;28;20133;-81
2021/04/02 04:09:40;;;;;;;11.90;4.13;;;3.80;99.90;;;;;;5029363;28;20132;-82
2021/04/02 04:12:11;;;;;;;10.15;3.30;;;3.80;99.90;;;;;;5043141;28;20055;-81
2021/04/02 04:14:39;;;;;;;16.65;3.47;;;3.70;99.90;;;;;;5027939;28;20033;-81
2021/04/02 04:17:08;;;;;;;10.48;2.60;;;3.70;99.90;;;;;;5020776;28;20409;-81
2021/04/02 04:19:36;;;;;;;10.70;3.28;;;3.70;99.90;;;;;;5009712;28;20049;-81
2021/04/02 04:22:04;;;;;;;6.30;2.63;;;3.70;99.90;;;;;;5025358;28;20047;-80
2021/04/02 04:24:31;;;;;;;14.80;2.83;;;3.70;99.90;;;;;;5042207;28;20152;-80
2021/04/02 04:27:01;;;;;;;12.45;2.42;;;3.70;99.90;;;;;;5039664;28;20073;-81
2021/04/02 04:29:41;;;;;;;16.10;2.80;;;3.70;99.90;;;;;;5041759;28;20136;-81
2021/04/02 04:32:10;;;;;;;17.23;2.72;;;3.70;99.90;;;;;;5021651;28;20051;-80
2021/04/02 04:34:37;;;;;;;11.43;2.50;;;3.60;99.90;;;;;;5039100;28;20057;-81
2021/04/02 04:37:05;;;;;;;10.40;2.20;;;3.70;99.90;;;;;;5021573;28;20091;-81
2021/04/02 04:39:32;;;;;;;6.40;2.75;;;3.60;99.90;;;;;;5020322;28;20056;-80
2021/04/02 04:41:59;;;;;;;11.88;2.92;;;3.70;99.90;;;;;;5019820;28;20060;-80
2021/04/02 04:44:27;;;;;;;12.98;2.38;;;3.60;99.90;;;;;;5021691;28;20693;-81
2021/04/02 04:46:53;;;;;;;7.35;2.38;;;3.60;99.90;;;;;;5004872;28;20175;-81
2021/04/02 04:49:20;;;;;;;12.27;2.40;;;3.60;99.90;;;;;;5021674;28;20053;-81
2021/04/02 04:51:48;;;;;;;6.28;2.20;;;3.60;99.90;;;;;;5036928;28;20052;-81
2021/04/02 04:54:18;;;;;;;10.70;3.05;;;3.60;99.90;;;;;;5021239;28;20050;-81
2021/04/02 04:56:45;;;;;;;14.63;2.63;;;3.60;99.90;;;;;;5033204;28;21164;-81
2021/04/02 04:59:12;;;;;;;4.97;2.05;;;3.60;99.90;;;;;;5019700;28;20109;-81
2021/04/02 05:01:45;;;;;;;14.45;2.97;;;3.60;99.90;;;;;;5024383;28;20061;-81
2021/04/02 05:04:12;;;;;;;15.33;3.30;;;3.50;99.90;;;;;;5012208;28;20168;-81
2021/04/02 05:06:40;;;;;;;9.60;2.65;;;3.60;99.90;;;;;;5034509;28;20102;-80
2021/04/02 05:09:06;;;;;;;8.55;3.10;;;3.60;99.90;;;;;;5019888;28;20558;-80
2021/04/02 05:11:37;;;;;;;9.80;3.20;;;3.50;99.90;;;;;;5022572;28;20053;-80
2021/04/02 05:14:06;;;;;;;11.30;2.75;;;3.40;99.90;;;;;;5023784;28;20050;-80
2021/04/02 05:16:33;;;;;;;10.55;2.85;;;3.40;99.90;;;;;;5026671;28;20195;-81
2021/04/02 05:19:01;;;;;;;14.40;3.38;;;3.40;99.90;;;;;;5024328;28;20116;-81
2021/04/02 05:21:27;;;;;;;13.50;4.35;;;3.40;99.90;;;;;;5025469;28;20045;-81
2021/04/02 05:23:53;;;;;;;14.18;3.15;;;3.40;99.90;;;;;;5021612;28;20083;-82
2021/04/02 05:26:20;;;;;;;17.30;3.13;;;3.50;99.90;;;;;;5023593;28;20048;-81
2021/04/02 05:28:50;;;;;;;7.60;2.55;;;3.40;99.90;;;;;;5040010;28;20136;-81
2021/04/02 05:31:19;;;;;;;16.27;3.58;;;3.50;99.90;;;;;;5024208;28;20045;-81
2021/04/02 05:34:05;;;;;;;11.45;2.88;;;3.50;99.90;;;;;;5039373;28;20049;-81
2021/04/02 05:36:32;;;;;;;9.80;2.30;;;3.60;99.90;;;;;;5022985;28;20151;-81
2021/04/02 05:38:58;;;;;;;10.65;2.72;;;3.60;99.90;;;;;;5038382;28;20068;-82
2021/04/02 05:41:30;;;;;;;8.60;2.50;;;3.70;99.90;;;;;;5047474;28;20065;-81
2021/04/02 05:44:03;;;;;;;9.40;2.65;;;3.80;99.90;;;;;;5036818;28;20052;-80
2021/04/02 05:46:30;;;;;;;13.82;2.28;;;3.90;99.90;;;;;;5017586;28;20099;-80
2021/04/02 05:49:04;;;;;;;9.07;3.63;;;4.00;99.90;;;;;;5022244;28;20416;-79
2021/04/02 05:51:31;;;;;;;13.32;2.47;;;4.10;99.90;;;;;;5033772;28;20435;-80
2021/04/02 05:53:59;;;;;;;11.02;2.00;;;4.20;99.90;;;;;;5017572;28;20063;-81
2021/04/02 05:56:26;;;;;;;5.80;2.10;;;4.30;99.90;;;;;;5047422;28;20127;-81
2021/04/02 05:58:54;;;;;;;23.63;3.35;;;4.50;99.90;;;;;;5023109;28;20204;-80
2021/04/02 06:01:20;;;;;;;10.55;3.20;;;4.60;99.90;;;;;;5025790;28;20119;-80
2021/04/02 06:03:47;;;;;;;11.23;2.15;;;4.70;99.90;;;;;;5027202;28;20059;-81
2021/04/02 06:06:14;;;;;;;15.18;3.17;;;4.80;99.90;;;;;;5023736;28;20057;-81
2021/04/02 06:08:45;;;;;;;11.60;2.17;;;4.90;99.90;;;;;;5026684;28;20102;-81
2021/04/02 06:11:13;;;;;;;7.82;2.47;;;5.00;99.90;;;;;;5023121;28;20060;-81
2021/04/02 06:13:39;;;;;;;11.55;2.38;;;5.10;99.90;;;;;;5018000;28;20479;-79
2021/04/02 06:16:06;;;;;;;12.48;1.92;;;5.20;99.90;;;;;;5024139;28;20052;-78
2021/04/02 06:18:40;;;;;;;5.55;1.98;;;5.30;99.90;;;;;;5019625;28;20049;-79
2021/04/02 06:21:07;;;;;;;8.80;3.25;;;5.30;99.90;;;;;;5017857;28;20057;-79
2021/04/02 06:23:35;;;;;;;5.90;1.70;;;5.40;99.90;;;;;;5016678;28;20056;-80
2021/04/02 06:26:09;;;;;;;7.47;1.63;;;5.50;99.90;;;;;;5019264;28;20546;-80
2021/04/02 06:28:37;;;;;;;;;;;5.60;99.90;;;;;;5021476;28;20065;-80
2021/04/02 06:31:06;;;;;;;6.93;1.55;;;5.70;99.90;;;;;;5036717;28;20369;-79
2021/04/02 06:33:41;;;;;;;4.72;1.85;;;5.80;99.90;;;;;;5033618;28;20084;-79
2021/04/02 06:36:18;;;;;;;8.38;2.08;;;5.90;99.90;;;;;;5019695;28;20561;-79
2021/04/02 06:38:49;;;;;;;6.68;1.85;;;5.90;99.90;;;;;;5033882;28;20060;-80
2021/04/02 06:41:18;;;;;;;5.25;1.15;;;6.00;99.90;;;;;;5034566;28;20049;-80
2021/04/02 06:43:46;;;;;;;8.85;2.42;;;6.00;99.90;;;;;;5027148;28;20067;-80
2021/04/02 06:46:24;;;;;;;6.78;1.52;;;6.00;99.90;;;;;;5011047;28;20054;-79
2021/04/02 06:48:51;;;;;;;9.38;1.67;;;6.10;99.90;;;;;;5015420;28;20052;-81
2021/04/02 06:51:19;;;;;;;7.88;1.95;;;6.10;99.90;;;;;;5019901;28;20452;-80
2021/04/02 06:53:47;;;;;;;10.35;1.50;;;6.10;99.90;;;;;;5021402;28;20053;-81
2021/04/02 06:56:15;;;;;;;8.02;1.30;;;6.10;99.90;;;;;;5026546;28;20141;-83
2021/04/02 06:58:43;;;;;;;11.23;3.53;;;6.20;99.90;;;;;;5021246;28;20045;-83
2021/04/02 07:01:13;;;;;;;12.27;2.30;;;6.20;99.90;;;;;;5025158;28;20115;-82
2021/04/02 07:03:42;;;;;;;7.88;1.80;;;6.30;99.90;;;;;;5020290;28;20057;-83
2021/04/02 07:06:09;;;;;;;8.40;1.95;;;6.30;99.90;;;;;;5024846;28;20069;-83
2021/04/02 07:08:38;;;;;;;11.43;2.05;;;6.40;99.90;;;;;;5035564;28;20049;-83
2021/04/02 07:11:05;;;;;;;5.82;1.25;;;6.40;99.90;;;;;;5030840;28;20539;-82
2021/04/02 07:13:38;;;;;;;9.50;2.83;;;6.40;99.90;;;;;;5027149;28;20160;-82
2021/04/02 07:16:06;;;;;;;11.52;1.98;;;6.50;99.90;;;;;;5023375;28;20049;-82
2021/04/02 07:18:33;;;;;;;3.97;1.83;;;6.50;99.90;;;;;;5021778;28;20065;-83
2021/04/02 07:21:00;;;;;;;6.47;1.63;;;6.60;99.90;;;;;;5023983;28;20033;-83
2021/04/02 07:23:27;;;;;;;9.98;2.67;;;6.60;99.90;;;;;;5023038;28;20045;-83
2021/04/02 07:25:55;;;;;;;4.85;1.80;;;6.60;99.90;;;;;;5024550;28;20482;-82
2021/04/02 07:28:23;;;;;;;6.35;2.13;;;6.70;99.90;;;;;;5016321;28;20049;-80
2021/04/02 07:30:51;;;;;;;9.13;2.28;;;6.70;99.90;;;;;;5036059;28;20057;-83
2021/04/02 07:33:20;;;;;;;8.73;2.50;;;6.70;99.90;;;;;;5035325;28;20126;-83
2021/04/02 07:35:57;;;;;;;5.88;2.40;;;6.80;99.90;;;;;;5019023;28;20068;-80
2021/04/02 07:38:27;;;;;;;14.30;2.85;;;6.80;99.90;;;;;;5020693;28;20055;-82
2021/04/02 07:40:53;;;;;;;11.00;3.40;;;6.80;99.90;;;;;;5028895;28;20095;-82
2021/04/02 07:43:21;;;;;;;10.18;2.20;;;6.70;99.90;;;;;;5042719;28;20055;-82
2021/04/02 07:45:52;;;;;;;10.32;2.95;;;6.80;99.90;;;;;;5024668;28;20123;-83
2021/04/02 07:48:23;;;;;;;7.95;1.85;;;6.80;99.90;;;;;;5022754;28;20109;-80
2021/04/02 07:50:52;;;;;;;12.45;2.60;;;6.80;99.90;;;;;;5024654;28;20063;-82
2021/04/02 07:53:24;;;;;;;8.77;2.30;;;6.90;99.90;;;;;;5025356;28;20055;-82
2021/04/02 07:56:06;;;;;;;12.95;2.40;;;6.90;99.90;;;;;;5030172;28;20048;-83
2021/04/02 07:58:37;;;;;;;10.77;2.60;;;7.00;99.90;;;;;;5022740;28;20063;-82
2021/04/02 08:01:03;;;;;;;13.70;3.30;;;7.00;99.90;;;;;;5037468;28;20056;-83
2021/04/02 08:03:32;;;;;;;8.93;2.47;;;7.00;99.90;;;;;;5018201;28;20059;-83
2021/04/02 08:06:10;;;;;;;12.80;2.30;;;7.00;99.90;;;;;;5039710;28;20057;-82
2021/04/02 08:08:47;;;;;;;11.25;2.30;;;6.90;99.90;;;;;;5038690;28;20049;-82
2021/04/02 08:11:19;;;;;;;11.07;2.70;;;6.90;99.90;;;;;;5021167;28;20055;-83
2021/04/02 08:14:05;;;;;;;12.02;2.35;;;6.90;99.90;;;;;;5017588;28;20148;-81
2021/04/02 08:16:31;;;;;;;6.22;3.00;;;7.00;99.90;;;;;;5021669;28;20139;-84
2021/04/02 08:19:04;;;;;;;11.57;2.10;;;7.00;99.90;;;;;;5028701;28;20088;-83
2021/04/02 08:21:35;;;;;;;9.02;2.13;;;7.10;99.90;;;;;;5024637;28;20073;-83
2021/04/02 08:24:03;;;;;;;16.48;3.03;;;7.10;99.90;;;;;;5038389;28;20091;-85
2021/04/02 08:26:32;;;;;;;8.05;2.03;;;7.20;99.90;;;;;;5024176;28;20448;-83
2021/04/02 08:28:59;;;;;;;9.60;1.70;;;7.20;99.90;;;;;;5024907;28;20048;-85
2021/04/02 08:31:27;;;;;;;10.00;2.53;;;7.30;99.90;;;;;;5022045;28;20045;-83
2021/04/02 08:33:54;;;;;;;11.80;2.15;;;7.30;99.90;;;;;;5021003;28;20080;-82
2021/04/02 08:36:22;;;;;;;7.50;1.52;;;7.40;99.90;;;;;;5025210;28;20033;-84
2021/04/02 08:38:49;;;;;;;7.13;1.30;;;7.40;99.90;;;;;;5021629;28;20052;-85
2021/04/02 08:41:20;;;;;;;8.63;2.03;;;7.50;99.90;;;;;;5028783;28;20135;-85
2021/04/02 08:43:47;;;;;;;10.98;1.38;;;7.40;99.90;;;;;;5022779;28;20061;-85
2021/04/02 08:46:15;;;;;;;5.45;1.48;;;7.50;99.90;;;;;;5001389;28;20087;-83
2021/04/02 08:48:45;;;;;;;8.00;2.08;;;7.60;99.90;;;;;;4995016;28;20109;-84
2021/04/02 08:51:19;;;;;;;13.85;1.85;;;7.70;99.90;;;;;;5027166;28;20396;-85
2021/04/02 08:53:46;;;;;;;;;;;7.90;99.90;;;;;;5024631;28;20059;-86
2021/04/02 08:56:20;;;;;;;9.23;1.27;;;8.00;99.90;;;;;;5018364;28;19924;-84
2021/04/02 08:58:47;;;;;;;7.30;1.52;;;8.10;99.90;;;;;;5019471;28;20128;-84
2021/04/02 09:01:16;;;;;;;7.75;1.65;;;8.20;99.90;;;;;;5041475;28;20052;-84
2021/04/02 09:03:44;;;;;;;13.35;2.15;;;8.30;99.90;;;;;;5024206;28;20116;-84
2021/04/02 09:06:12;;;;;;;6.35;1.25;;;8.40;99.90;;;;;;5022098;28;20048;-83
2021/04/02 09:08:39;;;;;;;14.15;2.53;;;8.50;99.90;;;;;;5012741;28;20045;-83
2021/04/02 09:11:11;;;;;;;8.02;1.98;;;8.60;99.90;;;;;;5034828;28;20119;-85
2021/04/02 09:13:39;;;;;;;18.17;2.10;;;8.70;99.90;;;;;;5023019;28;20481;-82
2021/04/02 09:16:14;;;;;;;7.20;2.47;;;8.80;99.90;;;;;;5021643;28;20059;-80
2021/04/02 09:18:52;;;;;;;8.10;2.72;;;8.80;99.90;;;;;;5024181;28;20436;-81
2021/04/02 09:21:20;;;;;;;3.75;1.60;;;8.90;99.90;;;;;;5021286;28;20049;-85
2021/04/02 09:23:54;;;;;;;4.68;1.50;;;9.00;99.90;;;;;;5026147;28;20072;-83
2021/04/02 09:26:21;;;;;;;13.02;2.17;;;9.10;99.90;;;;;;5020740;28;20045;-83
2021/04/02 09:28:48;;;;;;;8.95;1.77;;;9.10;99.90;;;;;;5022785;28;20079;-86
2021/04/02 09:31:21;;;;;;;8.35;1.95;;;9.10;99.90;;;;;;5024652;28;20049;-86
2021/04/02 09:33:51;;;;;;;11.88;2.40;;;9.00;99.90;;;;;;4994967;28;20102;-86
2021/04/02 09:36:18;;;;;;;8.75;2.60;;;9.10;99.90;;;;;;5040807;28;20053;-87
2021/04/02 09:38:45;;;;;;;10.50;2.33;;;9.20;99.90;;;;;;5022175;28;20123;-85
2021/04/02 09:41:14;;;;;;;11.07;2.63;;;9.20;99.90;;;;;;5028563;28;20056;-82
2021/04/02 09:43:51;;;;;;;9.75;2.28;;;9.20;99.90;;;;;;4997755;28;20057;-82
2021/04/02 09:46:35;;;;;;;7.70;1.80;;;9.30;99.90;;;;;;5023822;28;20037;-86
2021/04/02 09:49:06;;;;;;;;;;;9.30;99.90;;;;;;5000024;28;20049;-84
2021/04/02 09:51:34;;;;;;;10.65;2.03;;;9.30;99.90;;;;;;5039133;28;19962;-82
2021/04/02 09:54:00;;;;;;;9.73;1.80;;;9.30;99.90;;;;;;5026493;28;20045;-81
2021/04/02 09:56:27;;;;;;;13.88;2.95;;;9.40;99.90;;;;;;5020925;28;20071;-83
2021/04/02 09:58:53;;;;;;;16.17;3.42;;;9.50;99.80;;;;;;5019776;28;20053;-83
2021/04/02 10:01:19;;;;;;;11.57;1.90;;;9.60;99.50;;;;;;5004875;28;20109;-85
2021/04/02 10:03:47;;;;;;;8.00;2.17;;;9.60;98.80;;;;;;5021319;28;20096;-85
2021/04/02 10:06:13;;;;;;;6.40;1.92;;;9.60;99.20;;;;;;5020323;28;20053;-83
2021/04/02 10:08:39;;;;;;;11.27;2.45;;;9.50;99.90;;;;;;5024273;28;20051;-84
2021/04/02 10:11:05;;;;;;;7.57;2.10;;;9.60;99.60;;;;;;5022151;28;20088;-82
2021/04/02 10:13:32;;;;;;;5.55;1.67;;;9.60;99.60;;;;;;5040355;28;20049;-83
2021/04/02 10:15:58;;;;;;;11.82;1.65;;;9.70;98.90;;;;;;5032800;28;20045;-82
2021/04/02 10:18:27;;;;;;;9.10;1.83;;;9.80;97.50;;;;;;5024503;28;20080;-83
2021/04/02 10:20:54;;;;;;;5.15;1.23;;;9.80;98.30;;;;;;5020641;28;20056;-82
2021/04/02 10:23:21;;;;;;;12.20;1.80;;;9.80;98.40;;;;;;5027743;28;20105;-83
2021/04/02 10:25:47;;;;;;;15.45;2.90;;;9.80;97.00;;;;;;5028884;28;20049;-82
2021/04/02 10:28:14;;;;;;;9.38;2.05;;;9.80;98.70;;;;;;5022694;28;20045;-80
2021/04/02 10:30:40;;;;;;;6.70;1.85;;;9.80;98.00;;;;;;5024622;28;20076;-82
2021/04/02 10:33:07;;;;;;;14.77;2.20;;;9.70;96.70;;;;;;5023866;28;20045;-82
2021/04/02 10:35:35;;;;;;;7.88;1.55;;;9.60;97.30;;;;;;5040265;28;20092;-83
2021/04/02 10:38:03;;;;;;;9.10;1.83;;;9.50;96.90;;;;;;5036089;28;20075;-83
2021/04/02 10:40:29;;;;;;;10.18;1.45;;;9.50;97.80;;;;;;5025440;28;20570;-81
2021/04/02 10:42:56;;;;;;;7.45;1.70;;;9.60;98.50;;;;;;5021575;28;20132;-84
2021/04/02 10:45:23;;;;;;;6.75;2.10;;;9.60;98.70;;;;;;5020007;28;20055;-80
2021/04/02 10:47:49;;;;;;;12.50;2.83;;;9.60;98.50;;;;;;5025650;28;20076;-81
2021/04/02 10:50:22;;;;;;;13.65;2.78;;;9.70;98.70;;;;;;5026960;28;20048;-82
2021/04/02 10:52:49;;;;;;;8.40;2.00;;;9.70;99.40;;;;;;5019747;28;20099;-85
2021/04/02 10:55:15;;;;;;;5.88;1.60;;;9.80;98.20;;;;;;5024457;28;20053;-84
2021/04/02 10:57:43;;;;;;;10.70;2.00;;;9.80;98.60;;;;;;5022353;28;20055;-82
2021/04/02 11:00:14;;;;;;;6.57;3.17;;;9.90;99.40;;;;;;5023501;28;20133;-84
2021/04/02 11:02:41;;;;;;;7.57;1.60;;;9.90;99.00;;;;;;5009002;28;20060;-83
2021/04/02 11:05:11;;;;;;;15.23;2.15;;;9.90;98.70;;;;;;5022554;28;20461;-83
2021/04/02 11:07:42;;;;;;;9.75;1.80;;;10.00;98.60;;;;;;5036070;28;20049;-83
2021/04/02 11:10:11;;;;;;;11.52;1.90;;;9.90;98.50;;;;;;5010520;28;20444;-84
2021/04/02 11:12:38;;;;;;;7.00;1.65;;;9.80;98.50;;;;;;5020991;28;20045;-83
2021/04/02 11:15:07;;;;;;;10.40;1.92;;;9.80;99.60;;;;;;5023515;28;21798;-82
2021/04/02 11:17:33;;;;;;;6.10;1.33;;;9.90;98.60;;;;;;5034394;28;20579;-83
2021/04/02 11:20:03;;;;;;;10.05;1.20;;;9.90;99.20;;;;;;5009995;28;20124;-83
2021/04/02 11:22:29;;;;;;;5.57;1.02;;;10.10;98.20;;;;;;5035555;28;20086;-83
2021/04/02 11:24:55;;;;;;;13.40;1.83;;;10.20;97.60;;;;;;5038868;28;20036;-85
2021/04/02 11:27:21;;;;;;;6.45;1.40;;;10.10;98.00;;;;;;5026389;28;20061;-82
2021/04/02 11:29:48;;;;;;;16.83;2.08;;;10.10;98.50;;;;;;5037966;28;20582;-84
2021/04/02 11:32:14;;;;;;;6.55;1.67;;;10.10;99.00;;;;;;5022445;28;20053;-85
2021/04/02 11:34:42;;;;;;;7.28;1.95;;;9.90;99.10;;;;;;5040733;28;20052;-79
2021/04/02 11:37:09;;;;;;;9.52;1.65;;;9.70;99.40;;;;;;5021654;28;20072;-83
2021/04/02 11:39:36;;;;;;;6.78;1.10;;;9.60;99.90;;;;;;5022398;28;20168;-81
2021/04/02 11:42:03;;;;;;;8.32;1.63;;;9.70;99.20;;;;;;5025949;28;20053;-83
2021/04/02 11:44:34;;;;;;;9.27;2.15;;;9.70;99.50;;;;;;5022039;28;20041;-85
2021/04/02 11:47:00;;;;;;;6.45;1.48;;;9.80;99.90;;;;;;5026770;28;22301;-82
2021/04/02 11:49:28;;;;;;;10.80;1.83;;;9.80;99.90;;;;;;5017597;28;20037;-84
2021/04/02 11:51:56;;;;;;;7.97;1.95;;;9.70;99.90;;;;;;5020899;28;20481;-85
2021/04/02 11:54:23;;;;;;;6.28;2.50;;;9.50;99.90;;;;;;5022461;28;20073;-85
2021/04/02 11:56:49;;;;;;;6.45;2.10;;;9.50;99.90;;;;;;5023198;28;20060;-83
2021/04/02 11:59:16;;;;;;;9.07;1.95;;;9.50;99.90;;;;;;5026591;28;20048;-81
2021/04/02 12:01:42;;;;;;;12.85;1.88;;;9.60;99.90;;;;;;5023978;28;20581;-81
2021/04/02 12:04:10;;;;;;;7.05;1.42;;;9.70;99.90;;;;;;5035973;28;20073;-81
2021/04/02 12:06:38;;;;;;;4.05;1.40;;;9.70;99.30;;;;;;5020631;28;20055;-82
2021/04/02 12:09:06;;;;;;;5.30;2.08;;;9.60;99.70;;;;;;5023123;28;20110;-81
2021/04/02 12:11:33;;;;;;;6.25;1.42;;;9.50;99.90;;;;;;5020889;28;20053;-81
2021/04/02 12:13:59;;;;;;;4.90;1.23;;;9.40;99.90;;;;;;5035700;28;20053;-84
2021/04/02 12:16:25;;;;;;;10.07;1.40;;;9.30;99.90;;;;;;5011464;28;20065;-81
2021/04/02 12:18:52;;;;;;;5.07;1.60;;;9.20;99.90;;;;;;5019801;28;20045;-81
2021/04/02 12:21:19;;;;;;;16.08;2.05;;;9.30;99.90;;;;;;5020119;28;20114;-84
2021/04/02 12:23:45;;;;;;;13.77;1.45;;;9.30;99.90;;;;;;5022715;28;20064;-84
2021/04/02 12:26:11;;;;;;;10.30;1.60;;;9.40;99.90;;;;;;5023171;28;20049;-84
2021/04/02 12:28:37;;;;;;;10.15;1.88;;;9.30;99.90;;;;;;5025074;28;20053;-85
2021/04/02 12:31:04;;;;;;;11.75;1.83;;;9.30;99.90;;;;;;5027931;28;20527;-84
2021/04/02 12:33:31;;;;;;;6.75;1.25;;;9.20;99.90;;;;;;5038874;28;20053;-85
2021/04/02 12:35:59;;;;;;;6.90;1.42;;;9.10;99.90;;;;;;5009864;28;20681;-85
2021/04/02 12:38:26;;;;;;;10.80;1.33;;;9.10;99.90;;;;;;5022806;28;20107;-85
2021/04/02 12:40:54;;;;;;;7.53;1.60;;;9.20;99.90;;;;;;5023053;28;20158;-84
2021/04/02 12:43:20;;;;;;;6.85;1.15;;;9.30;99.90;;;;;;5004960;28;20045;-85
2021/04/02 12:45:46;;;;;;;6.38;2.25;;;9.40;99.90;;;;;;5022616;28;20052;-85
2021/04/02 12:48:12;;;;;;;8.65;1.20;;;9.40;99.90;;;;;;5028646;28;20116;-84
2021/04/02 12:50:39;;;;;;;3.28;1.02;;;9.60;99.90;;;;;;5022340;28;20061;-83
2021/04/02 12:53:05;;;;;;;5.25;1.25;;;9.80;99.90;;;;;;5018772;28;20047;-85
2021/04/02 12:55:32;;;;;;;3.65;1.50;;;9.90;99.90;;;;;;5041233;28;20401;-82
2021/04/02 12:57:59;;;;;;;13.85;1.67;;;10.00;99.90;;;;;;5040965;28;20049;-83
2021/04/02 13:00:27;;;;;;;6.30;1.52;;;10.00;99.90;;;;;;5041881;28;20049;-82